Time;durP1;ratioP1;P1;durP2;ratioP2;P2;SDS_P1;SDS_P2;PMS_P1;PMS_P2;Temp;Humidity;BMP_temperature;BMP_pressure;BME280_temperature;BME280_humidity;BME280_pressure;Samples;Min_cycle;Max_cycle;Signal;HPM_P1;HPM_P2
2023/12/23 00:01:51;;;;;;;13.00;2.70;;;9.50;99.90;;;;;;5072181;28;20048;-70
2023/12/23 00:04:17;;;;;;;7.18;1.75;;;9.50;99.90;;;;;;5057698;28;20033;-69
2023/12/23 00:06:44;;;;;;;4.38;1.27;;;9.50;99.90;;;;;;5062677;28;20053;-69
2023/12/23 00:09:15;;;;;;;11.13;1.67;;;9.50;99.90;;;;;;5060041;28;20049;-69
2023/12/23 00:11:42;;;;;;;7.13;2.15;;;9.50;99.90;;;;;;5064643;28;20071;-70
2023/12/23 00:14:09;;;;;;;6.40;1.35;;;9.50;99.90;;;;;;5054405;28;20121;-72
2023/12/23 00:16:36;;;;;;;7.00;1.60;;;9.50;99.90;;;;;;5067917;28;20059;-69
2023/12/23 00:19:03;;;;;;;5.25;1.50;;;9.50;99.90;;;;;;5060325;28;20055;-70
2023/12/23 00:21:30;;;;;;;9.80;2.22;;;9.40;99.90;;;;;;5066587;28;20048;-70
2023/12/23 00:23:57;;;;;;;5.75;2.20;;;9.50;99.90;;;;;;5065823;28;20110;-71
2023/12/23 00:26:24;;;;;;;8.65;1.65;;;9.50;99.90;;;;;;5068025;28;20044;-70
2023/12/23 00:28:51;;;;;;;6.72;2.30;;;9.40;99.90;;;;;;5067554;28;20496;-71
2023/12/23 00:31:17;;;;;;;8.73;2.10;;;9.40;99.90;;;;;;5066114;28;20592;-71
2023/12/23 00:33:47;;;;;;;9.77;1.83;;;9.40;99.90;;;;;;5067197;28;20086;-70
2023/12/23 00:36:14;;;;;;;10.95;2.75;;;9.40;99.90;;;;;;5068290;28;20102;-70
2023/12/23 00:38:41;;;;;;;3.72;2.10;;;9.50;99.90;;;;;;5067465;28;20449;-70
2023/12/23 00:41:08;;;;;;;7.57;2.00;;;9.40;99.90;;;;;;5067636;28;20048;-71
2023/12/23 00:43:35;;;;;;;4.93;2.03;;;9.50;99.90;;;;;;5065536;28;20076;-70
2023/12/23 00:46:02;;;;;;;11.85;2.38;;;9.50;99.90;;;;;;5067835;28;20053;-69
2023/12/23 00:48:29;;;;;;;6.70;2.45;;;9.40;99.90;;;;;;5069210;28;20048;-71
2023/12/23 00:50:56;;;;;;;9.45;2.00;;;9.50;99.90;;;;;;5067395;28;20041;-70
2023/12/23 00:53:25;;;;;;;8.30;1.90;;;9.50;99.90;;;;;;5063059;28;20045;-71
2023/12/23 00:55:52;;;;;;;17.13;3.63;;;9.50;99.90;;;;;;5064739;28;20051;-70
2023/12/23 00:58:20;;;;;;;8.65;2.13;;;9.50;99.90;;;;;;5071985;28;20128;-71
2023/12/23 01:00:47;;;;;;;9.32;2.05;;;9.40;99.90;;;;;;5066064;28;20060;-70
2023/12/23 01:03:13;;;;;;;9.95;1.80;;;9.40;99.90;;;;;;5070226;28;20076;-70
2023/12/23 01:05:40;;;;;;;9.50;3.05;;;9.40;99.90;;;;;;5067703;28;20057;-71
2023/12/23 01:08:07;;;;;;;8.95;2.08;;;9.40;99.90;;;;;;5066531;28;20370;-71
2023/12/23 01:10:34;;;;;;;6.95;1.88;;;9.40;99.90;;;;;;5067463;28;20052;-72
2023/12/23 01:13:01;;;;;;;9.25;1.75;;;9.40;99.90;;;;;;5061691;28;20044;-70
2023/12/23 01:15:28;;;;;;;6.15;1.75;;;9.40;99.90;;;;;;4710450;28;9999743;-70
2023/12/23 01:17:55;;;;;;;9.48;3.15;;;9.40;99.90;;;;;;5064291;28;20070;-70
2023/12/23 01:20:22;;;;;;;5.20;1.73;;;9.40;99.90;;;;;;5064263;28;20067;-70
2023/12/23 01:22:49;;;;;;;7.53;1.88;;;9.30;99.90;;;;;;5066220;28;20044;-70
2023/12/23 01:25:16;;;;;;;11.35;2.53;;;9.40;99.90;;;;;;5068385;28;20104;-70
2023/12/23 01:27:43;;;;;;;11.77;2.20;;;9.40;99.90;;;;;;5069922;28;20045;-71
2023/12/23 01:30:10;;;;;;;10.52;2.10;;;9.40;99.90;;;;;;5066815;28;20053;-70
2023/12/23 01:32:37;;;;;;;9.27;2.35;;;9.40;99.90;;;;;;5067447;28;20128;-70
2023/12/23 01:35:04;;;;;;;10.25;2.10;;;9.30;99.90;;;;;;5064357;28;20049;-70
2023/12/23 01:37:31;;;;;;;13.25;2.50;;;9.30;99.90;;;;;;5065712;28;20107;-70
2023/12/23 01:39:58;;;;;;;6.93;2.40;;;9.30;99.90;;;;;;5069865;28;20076;-71
2023/12/23 01:42:25;;;;;;;8.23;2.35;;;9.30;99.90;;;;;;5070923;28;20553;-69
2023/12/23 01:44:51;;;;;;;8.25;1.98;;;9.30;99.90;;;;;;5070177;28;20052;-70
2023/12/23 01:47:18;;;;;;;7.65;1.85;;;9.30;99.90;;;;;;5070934;28;20051;-70
2023/12/23 01:49:46;;;;;;;7.45;1.75;;;9.30;99.90;;;;;;5069872;28;20403;-70
2023/12/23 01:52:12;;;;;;;6.25;2.10;;;9.30;99.90;;;;;;5068070;28;20049;-72
2023/12/23 01:54:39;;;;;;;16.73;2.90;;;9.30;99.90;;;;;;5069244;28;20053;-69
2023/12/23 01:57:06;;;;;;;18.10;2.75;;;9.30;99.90;;;;;;5070831;28;20484;-69
2023/12/23 01:59:33;;;;;;;7.63;2.33;;;9.30;99.90;;;;;;5070390;28;20169;-71
2023/12/23 02:02:01;;;;;;;7.95;1.85;;;9.30;99.90;;;;;;5072700;28;20377;-71
2023/12/23 02:04:28;;;;;;;10.93;1.70;;;9.30;99.90;;;;;;5066187;28;20048;-71
2023/12/23 02:06:56;;;;;;;12.10;2.30;;;9.30;99.90;;;;;;5068870;28;20102;-70
2023/12/23 02:09:23;;;;;;;8.10;2.05;;;9.30;99.90;;;;;;5070202;28;20051;-70
2023/12/23 02:12:02;;;;;;;13.02;1.90;;;9.20;99.90;;;;;;5069814;28;20041;-70
2023/12/23 02:14:40;;;;;;;7.32;2.00;;;9.20;99.90;;;;;;5071970;28;20469;-70
2023/12/23 02:17:08;;;;;;;12.75;3.58;;;9.20;99.90;;;;;;5072455;28;20041;-70
2023/12/23 02:19:34;;;;;;;12.27;2.28;;;9.20;99.90;;;;;;5070066;28;20041;-70
2023/12/23 02:22:01;;;;;;;14.23;2.08;;;9.20;99.90;;;;;;5070063;28;20102;-70
2023/12/23 02:24:28;;;;;;;9.80;1.73;;;9.20;99.90;;;;;;5069404;28;20052;-70
2023/12/23 02:27:00;;;;;;;6.72;1.65;;;9.20;99.90;;;;;;5070201;28;20059;-70
2023/12/23 02:29:27;;;;;;;17.38;2.50;;;9.20;99.90;;;;;;5051259;28;20555;-71
2023/12/23 02:31:54;;;;;;;12.75;2.42;;;9.20;99.90;;;;;;5068606;28;20049;-70
2023/12/23 02:34:21;;;;;;;9.73;1.88;;;9.20;99.90;;;;;;5069738;28;20127;-70
2023/12/23 02:36:48;;;;;;;5.60;1.25;;;9.20;99.90;;;;;;5062669;28;20796;-70
2023/12/23 02:39:15;;;;;;;11.88;1.92;;;9.20;99.90;;;;;;5064907;28;20075;-70
2023/12/23 02:41:42;;;;;;;7.22;1.55;;;9.20;99.90;;;;;;5069719;28;20503;-70
2023/12/23 02:44:09;;;;;;;7.88;1.60;;;9.40;99.90;;;;;;5069751;28;20047;-69
2023/12/23 02:46:37;;;;;;;11.18;2.10;;;9.20;99.90;;;;;;5069606;28;20048;-70
2023/12/23 02:49:04;;;;;;;11.27;1.70;;;9.20;99.90;;;;;;5069018;28;20076;-69
2023/12/23 02:51:31;;;;;;;8.18;1.55;;;9.20;99.90;;;;;;5069392;28;20134;-70
2023/12/23 02:53:58;;;;;;;13.05;2.25;;;9.20;99.90;;;;;;5069436;28;20098;-70
2023/12/23 02:56:24;;;;;;;8.52;1.52;;;9.20;99.90;;;;;;5061150;28;20048;-70
2023/12/23 02:58:51;;;;;;;14.90;3.65;;;9.20;99.90;;;;;;5073744;28;20066;-70
2023/12/23 03:01:21;;;;;;;3.40;1.13;;;9.20;99.90;;;;;;5068694;28;20048;-70
2023/12/23 03:03:48;;;;;;;3.28;1.15;;;9.20;99.90;;;;;;5065721;28;20098;-70
2023/12/23 03:06:15;;;;;;;11.63;1.23;;;9.20;99.90;;;;;;5069312;28;20101;-70
2023/12/23 03:08:42;;;;;;;10.63;2.20;;;9.20;99.90;;;;;;5066419;28;20141;-69
2023/12/23 03:11:09;;;;;;;11.90;1.90;;;9.20;99.90;;;;;;5065105;28;20143;-70
2023/12/23 03:13:36;;;;;;;9.27;1.73;;;9.20;99.90;;;;;;5068708;28;20045;-70
2023/12/23 03:16:03;;;;;;;7.38;1.38;;;9.20;99.90;;;;;;5068968;28;20459;-68
2023/12/23 03:18:30;;;;;;;6.53;1.42;;;9.20;99.90;;;;;;5067442;28;20045;-70
2023/12/23 03:20:57;;;;;;;8.48;1.40;;;9.20;99.90;;;;;;5065444;28;20044;-70
2023/12/23 03:23:24;;;;;;;4.75;0.95;;;9.20;99.90;;;;;;5063663;28;20464;-71
2023/12/23 03:25:51;;;;;;;12.85;1.90;;;9.30;99.90;;;;;;5067270;28;20039;-71
2023/12/23 03:28:18;;;;;;;9.95;1.67;;;9.30;99.90;;;;;;5067143;28;20098;-70
2023/12/23 03:30:45;;;;;;;8.10;2.75;;;9.30;99.90;;;;;;5066141;28;20045;-70
2023/12/23 03:33:15;;;;;;;3.30;1.00;;;9.30;99.90;;;;;;5068572;28;20491;-70
2023/12/23 03:35:42;;;;;;;10.35;1.65;;;9.30;99.90;;;;;;5068298;28;20513;-69
2023/12/23 03:38:09;;;;;;;8.05;1.52;;;9.30;99.90;;;;;;5068112;28;20436;-70
2023/12/23 03:40:36;;;;;;;6.30;1.25;;;9.30;99.90;;;;;;5067175;28;20049;-70
2023/12/23 03:43:03;;;;;;;8.07;2.63;;;9.30;99.90;;;;;;5068128;28;20048;-69
2023/12/23 03:45:30;;;;;;;6.55;1.83;;;9.30;99.90;;;;;;5068174;28;20044;-69
2023/12/23 03:47:57;;;;;;;8.27;1.30;;;9.30;99.90;;;;;;5068543;28;20043;-70
2023/12/23 03:50:23;;;;;;;5.68;1.38;;;9.30;99.90;;;;;;5068468;28;20098;-68
2023/12/23 03:52:50;;;;;;;7.90;1.65;;;9.30;99.90;;;;;;5070853;28;20435;-69
2023/12/23 03:55:18;;;;;;;7.32;1.60;;;9.30;99.90;;;;;;5066664;28;20047;-69
2023/12/23 03:57:44;;;;;;;6.70;1.38;;;9.40;99.90;;;;;;5068701;28;20055;-70
2023/12/23 04:00:12;;;;;;;9.65;1.92;;;9.40;99.90;;;;;;5068539;28;20048;-70
2023/12/23 04:02:38;;;;;;;8.27;1.42;;;9.40;99.90;;;;;;5068030;28;20098;-70
2023/12/23 04:05:06;;;;;;;12.68;2.20;;;9.40;99.90;;;;;;5069287;28;20063;-70
2023/12/23 04:07:33;;;;;;;6.72;1.10;;;9.40;99.90;;;;;;5069248;28;20049;-71
2023/12/23 04:09:59;;;;;;;8.63;1.27;;;9.40;99.90;;;;;;5078365;28;20044;-70
2023/12/23 04:12:26;;;;;;;10.73;1.25;;;9.40;99.90;;;;;;5068071;28;20060;-70
2023/12/23 04:14:53;;;;;;;9.32;1.15;;;9.40;99.90;;;;;;5074996;28;20044;-71
2023/12/23 04:17:20;;;;;;;10.13;1.67;;;9.30;99.90;;;;;;5067318;28;20483;-70
2023/12/23 04:19:49;;;;;;;3.45;1.10;;;9.40;99.90;;;;;;5067943;28;20249;-70
2023/12/23 04:22:16;;;;;;;2.72;0.98;;;9.30;99.90;;;;;;5066434;28;20099;-71
2023/12/23 04:24:43;;;;;;;11.77;1.30;;;9.30;99.90;;;;;;5067072;28;20047;-70
2023/12/23 04:27:10;;;;;;;8.52;1.92;;;9.30;99.90;;;;;;5067657;28;20494;-71
2023/12/23 04:29:36;;;;;;;10.45;1.60;;;9.30;99.90;;;;;;5067936;28;20045;-70
2023/12/23 04:32:04;;;;;;;4.30;1.20;;;9.30;99.90;;;;;;5067620;28;20048;-71
2023/12/23 04:34:31;;;;;;;6.65;1.25;;;9.30;99.90;;;;;;5067512;28;20048;-70
2023/12/23 04:36:58;;;;;;;6.25;1.55;;;9.20;99.90;;;;;;5067290;28;20048;-70
2023/12/23 04:39:24;;;;;;;11.45;1.70;;;9.30;99.90;;;;;;5065604;28;20040;-70
2023/12/23 04:41:53;;;;;;;8.32;1.70;;;9.30;99.90;;;;;;5067712;28;20044;-70
2023/12/23 04:44:21;;;;;;;9.98;1.30;;;9.30;99.90;;;;;;5067342;28;20041;-70
2023/12/23 04:46:48;;;;;;;6.43;1.25;;;9.30;99.90;;;;;;5067129;28;20460;-70
2023/12/23 04:49:14;;;;;;;6.45;0.93;;;9.30;99.90;;;;;;5068638;28;20048;-70
2023/12/23 04:51:44;;;;;;;5.80;1.30;;;9.30;99.90;;;;;;5065724;28;20241;-70
2023/12/23 04:54:12;;;;;;;7.07;1.58;;;9.30;99.90;;;;;;5067035;28;20094;-70
2023/12/23 04:56:39;;;;;;;12.25;1.23;;;9.30;99.90;;;;;;5067389;28;20052;-70
2023/12/23 04:59:08;;;;;;;4.07;1.25;;;9.30;99.90;;;;;;5067195;28;20526;-71
2023/12/23 05:01:35;;;;;;;5.00;0.95;;;9.40;99.90;;;;;;5067524;28;20052;-70
2023/12/23 05:04:02;;;;;;;9.68;0.93;;;9.40;99.90;;;;;;5067465;28;20642;-70
2023/12/23 05:06:28;;;;;;;3.50;0.88;;;9.40;99.90;;;;;;5065599;28;20138;-70
2023/12/23 05:08:55;;;;;;;7.13;1.33;;;9.40;99.90;;;;;;5065467;28;20045;-70
2023/12/23 05:11:22;;;;;;;5.38;1.55;;;9.40;99.90;;;;;;5067474;28;20052;-70
2023/12/23 05:13:49;;;;;;;4.03;1.20;;;9.40;99.90;;;;;;5068646;28;20075;-70
2023/12/23 05:16:16;;;;;;;8.38;1.33;;;9.40;99.90;;;;;;5070206;28;20036;-71
2023/12/23 05:18:43;;;;;;;18.00;3.55;;;9.40;99.90;;;;;;5071103;28;20281;-70
2023/12/23 05:21:10;;;;;;;2.50;0.82;;;9.50;99.90;;;;;;5071091;28;20468;-69
2023/12/23 05:23:37;;;;;;;6.32;1.90;;;9.50;99.90;;;;;;5070791;28;20556;-69
2023/12/23 05:26:03;;;;;;;9.20;1.30;;;9.50;99.90;;;;;;5071064;28;20078;-70
2023/12/23 05:28:30;;;;;;;11.25;1.63;;;9.50;99.90;;;;;;5067002;28;20051;-70
2023/12/23 05:30:57;;;;;;;6.55;1.80;;;9.50;99.90;;;;;;5064159;28;20087;-70
2023/12/23 05:33:24;;;;;;;9.63;1.20;;;9.60;99.90;;;;;;5072493;28;20068;-70
2023/12/23 05:35:52;;;;;;;8.13;2.10;;;9.50;99.90;;;;;;5072463;28;20476;-70
2023/12/23 05:38:19;;;;;;;10.75;1.23;;;9.60;99.90;;;;;;5070296;28;20174;-70
2023/12/23 05:40:45;;;;;;;3.40;0.93;;;9.60;99.90;;;;;;5067227;28;20132;-70
2023/12/23 05:43:12;;;;;;;5.53;1.83;;;9.60;99.90;;;;;;5071109;28;20084;-70
2023/12/23 05:45:39;;;;;;;7.80;1.48;;;9.60;99.90;;;;;;5072728;28;20048;-70
2023/12/23 05:48:06;;;;;;;5.70;1.55;;;9.60;99.90;;;;;;5071131;28;20045;-70
2023/12/23 05:50:33;;;;;;;4.45;1.23;;;9.60;99.90;;;;;;5070675;28;20117;-69
2023/12/23 05:53:00;;;;;;;7.47;1.45;;;9.70;99.90;;;;;;5070685;28;20389;-69
2023/12/23 05:55:27;;;;;;;9.32;1.77;;;9.70;99.90;;;;;;5070518;28;20502;-69
2023/12/23 05:57:54;;;;;;;7.00;1.13;;;9.70;99.90;;;;;;5068316;28;20040;-70
2023/12/23 06:00:21;;;;;;;3.53;1.20;;;9.70;99.90;;;;;;5064801;28;20049;-70
2023/12/23 06:02:48;;;;;;;8.18;1.45;;;9.80;99.90;;;;;;5069419;28;20044;-70
2023/12/23 06:05:15;;;;;;;9.05;1.40;;;9.80;99.90;;;;;;5076879;28;20076;-70
2023/12/23 06:07:42;;;;;;;9.38;1.40;;;9.90;99.90;;;;;;5069871;28;20530;-70
2023/12/23 06:10:09;;;;;;;9.73;1.10;;;9.90;99.90;;;;;;5070747;28;20052;-70
2023/12/23 06:12:36;;;;;;;2.92;0.70;;;10.00;99.90;;;;;;5069833;28;20098;-70
2023/12/23 06:15:03;;;;;;;6.82;1.15;;;10.00;99.90;;;;;;5079132;28;20044;-70
2023/12/23 06:17:30;;;;;;;4.28;1.20;;;10.00;99.90;;;;;;5069871;28;20129;-70
2023/12/23 06:19:57;;;;;;;3.38;0.90;;;10.10;99.90;;;;;;5068925;28;20040;-70
2023/12/23 06:22:23;;;;;;;13.57;2.30;;;10.10;99.90;;;;;;5069961;28;20047;-70
2023/12/23 06:24:50;;;;;;;4.35;1.05;;;10.20;99.90;;;;;;5074564;28;20041;-70
2023/12/23 06:27:17;;;;;;;6.82;1.38;;;10.20;99.90;;;;;;5066276;28;20125;-71
2023/12/23 06:29:44;;;;;;;7.10;1.15;;;10.20;99.90;;;;;;5070310;28;20052;-70
2023/12/23 06:32:11;;;;;;;2.25;1.02;;;10.20;99.90;;;;;;5070060;28;20410;-70
2023/12/23 06:34:37;;;;;;;6.47;1.00;;;10.20;99.90;;;;;;5066692;28;20045;-70
2023/12/23 06:37:04;;;;;;;7.65;1.35;;;10.20;99.90;;;;;;5066066;28;20072;-72
2023/12/23 06:39:31;;;;;;;3.92;0.85;;;10.20;99.90;;;;;;5067375;28;20302;-72
2023/12/23 06:41:58;;;;;;;3.85;1.42;;;10.10;99.90;;;;;;5069736;28;20084;-70
2023/12/23 06:44:25;;;;;;;5.85;1.40;;;10.10;99.90;;;;;;5063980;28;20472;-70
2023/12/23 06:46:52;;;;;;;7.03;1.50;;;10.10;99.90;;;;;;5063604;28;20067;-71
2023/12/23 06:49:19;;;;;;;11.77;2.33;;;10.10;99.90;;;;;;5069062;28;20103;-71
2023/12/23 06:51:46;;;;;;;4.10;1.00;;;10.10;99.90;;;;;;5064222;28;20060;-71
2023/12/23 06:54:13;;;;;;;2.70;1.00;;;10.00;99.90;;;;;;5065630;28;20044;-70
2023/12/23 06:56:39;;;;;;;6.43;1.10;;;10.00;99.90;;;;;;5063804;28;20053;-70
2023/12/23 06:59:09;;;;;;;6.88;1.00;;;10.00;99.90;;;;;;5070462;28;20396;-70
2023/12/23 07:01:39;;;;;;;2.22;1.08;;;10.00;99.90;;;;;;5064435;28;20048;-70
2023/12/23 07:04:07;;;;;;;8.18;1.00;;;10.00;99.90;;;;;;5063215;28;20040;-71
2023/12/23 07:06:35;;;;;;;7.57;1.55;;;10.00;99.90;;;;;;5066618;28;20335;-70
2023/12/23 07:09:02;;;;;;;4.28;0.93;;;10.00;99.90;;;;;;5058522;28;20499;-72
2023/12/23 07:11:32;;;;;;;5.82;1.30;;;10.00;99.90;;;;;;5062115;28;20044;-71
2023/12/23 07:14:03;;;;;;;5.18;1.45;;;10.00;99.90;;;;;;5057679;28;20049;-69
2023/12/23 07:16:30;;;;;;;10.23;1.15;;;10.00;99.90;;;;;;5064143;28;20080;-70
2023/12/23 07:18:57;;;;;;;5.88;1.00;;;10.00;99.90;;;;;;5068457;28;20052;-71
2023/12/23 07:21:24;;;;;;;7.72;1.67;;;10.00;99.90;;;;;;5069196;28;20048;-70
2023/12/23 07:23:51;;;;;;;5.90;1.17;;;10.10;99.90;;;;;;5068116;28;20045;-69
2023/12/23 07:26:18;;;;;;;7.60;1.60;;;9.90;99.90;;;;;;5066615;28;20040;-71
2023/12/23 07:28:45;;;;;;;8.35;1.25;;;9.90;99.90;;;;;;5062840;28;20079;-70
2023/12/23 07:31:12;;;;;;;9.55;1.10;;;9.90;99.90;;;;;;5066557;28;20043;-70
2023/12/23 07:33:39;;;;;;;5.45;1.13;;;9.90;99.90;;;;;;5055285;28;20499;-70
2023/12/23 07:36:06;;;;;;;6.25;1.85;;;10.00;99.90;;;;;;5064230;28;20041;-70
2023/12/23 07:38:33;;;;;;;4.22;0.88;;;10.00;99.90;;;;;;5061436;28;20056;-72
2023/12/23 07:41:00;;;;;;;9.90;1.40;;;10.10;99.90;;;;;;5064733;28;20483;-71
2023/12/23 07:43:27;;;;;;;3.88;1.00;;;10.10;99.90;;;;;;5067355;28;20084;-71
2023/12/23 07:45:54;;;;;;;9.50;1.20;;;10.10;99.90;;;;;;5066034;28;20087;-70
2023/12/23 07:48:21;;;;;;;7.43;1.27;;;10.20;99.90;;;;;;5068746;28;20044;-70
2023/12/23 07:50:48;;;;;;;4.93;1.13;;;10.20;99.90;;;;;;5068036;28;20051;-70
2023/12/23 07:53:15;;;;;;;6.47;1.25;;;10.20;99.90;;;;;;5067694;28;20044;-68
2023/12/23 07:55:41;;;;;;;13.50;1.42;;;10.20;99.90;;;;;;5066770;28;20041;-72
2023/12/23 07:58:08;;;;;;;6.18;0.85;;;10.20;99.90;;;;;;5065943;28;20064;-70
2023/12/23 08:00:35;;;;;;;3.28;0.80;;;10.20;99.90;;;;;;5064769;28;20041;-70
2023/12/23 08:03:02;;;;;;;9.02;1.65;;;10.10;99.90;;;;;;5068151;28;20430;-69
2023/12/23 08:05:31;;;;;;;6.68;1.20;;;10.10;99.90;;;;;;5067717;28;20045;-69
2023/12/23 08:07:58;;;;;;;7.55;2.22;;;10.10;99.90;;;;;;5065874;28;20131;-73
2023/12/23 08:10:25;;;;;;;7.57;1.42;;;10.00;99.90;;;;;;5066517;28;20055;-71
2023/12/23 08:12:52;;;;;;;5.20;0.93;;;10.00;99.90;;;;;;5067757;28;20052;-72
2023/12/23 08:15:19;;;;;;;4.55;1.33;;;10.00;99.90;;;;;;5067505;28;20127;-71
2023/12/23 08:17:46;;;;;;;7.45;1.25;;;10.00;99.90;;;;;;5067386;28;20482;-71
2023/12/23 08:20:13;;;;;;;5.03;1.13;;;10.00;99.90;;;;;;5061599;28;20048;-71
2023/12/23 08:22:41;;;;;;;7.07;1.27;;;10.00;99.90;;;;;;5059851;28;20056;-71
2023/12/23 08:25:08;;;;;;;8.00;1.05;;;10.10;99.90;;;;;;5067627;28;20106;-71
2023/12/23 08:27:38;;;;;;;6.50;1.42;;;10.00;99.90;;;;;;5066631;28;20040;-71
2023/12/23 08:30:06;;;;;;;12.82;2.70;;;10.00;99.90;;;;;;5064782;28;20040;-71
2023/12/23 08:32:33;;;;;;;6.03;1.58;;;10.00;99.90;;;;;;5053682;28;20059;-69
2023/12/23 08:35:01;;;;;;;11.75;2.13;;;10.00;99.90;;;;;;5064801;28;20051;-69
2023/12/23 08:37:28;;;;;;;9.45;1.40;;;10.00;99.90;;;;;;5065638;28;20533;-69
2023/12/23 08:39:54;;;;;;;4.80;1.70;;;10.00;99.90;;;;;;5059893;28;20040;-69
2023/12/23 08:42:21;;;;;;;18.92;1.60;;;10.00;99.90;;;;;;5067200;28;20079;-68
2023/12/23 08:44:49;;;;;;;9.65;1.25;;;10.10;99.90;;;;;;5063490;28;20131;-68
2023/12/23 08:47:16;;;;;;;4.15;1.15;;;10.10;99.90;;;;;;5065631;28;20094;-68
2023/12/23 08:49:43;;;;;;;6.90;1.17;;;10.10;99.90;;;;;;5063699;28;20462;-67
2023/12/23 08:52:10;;;;;;;11.10;1.35;;;10.10;99.90;;;;;;5060235;28;20049;-69
2023/12/23 08:54:37;;;;;;;6.72;1.73;;;10.10;99.90;;;;;;5062117;28;20079;-69
2023/12/23 08:57:08;;;;;;;14.15;1.83;;;10.10;99.90;;;;;;5066749;28;20138;-69
2023/12/23 08:59:35;;;;;;;14.63;1.73;;;10.10;99.90;;;;;;5063780;28;20079;-69
2023/12/23 09:02:03;;;;;;;8.93;2.08;;;10.20;99.90;;;;;;5054244;28;20048;-69
2023/12/23 09:04:30;;;;;;;6.43;1.88;;;10.30;99.90;;;;;;5058097;28;20076;-69
2023/12/23 09:06:58;;;;;;;5.70;1.52;;;10.30;99.90;;;;;;5061242;28;20037;-68
2023/12/23 09:09:25;;;;;;;6.57;1.60;;;10.40;99.90;;;;;;5063264;28;20047;-69
2023/12/23 09:11:51;;;;;;;6.28;1.67;;;10.40;99.90;;;;;;5062895;28;20411;-69
2023/12/23 09:14:18;;;;;;;8.40;1.27;;;10.40;99.90;;;;;;5066255;28;20048;-69
2023/12/23 09:16:45;;;;;;;9.05;2.20;;;10.40;99.90;;;;;;5066728;28;20049;-69
2023/12/23 09:19:12;;;;;;;11.75;1.50;;;10.40;99.90;;;;;;5059656;28;20467;-69
2023/12/23 09:21:39;;;;;;;6.13;1.38;;;10.50;99.90;;;;;;5062657;28;20053;-70
2023/12/23 09:24:06;;;;;;;8.27;2.08;;;10.50;99.90;;;;;;5061483;28;20052;-69
2023/12/23 09:26:33;;;;;;;6.03;1.20;;;10.50;99.90;;;;;;5066584;28;20052;-69
2023/12/23 09:29:00;;;;;;;5.15;1.27;;;10.50;99.90;;;;;;5066866;28;20559;-69
2023/12/23 09:31:27;;;;;;;7.43;1.52;;;10.50;99.90;;;;;;5062165;28;20094;-68
2023/12/23 09:33:54;;;;;;;5.78;1.30;;;10.50;99.90;;;;;;5064756;28;20044;-67
2023/12/23 09:36:21;;;;;;;7.00;1.25;;;10.60;99.90;;;;;;5063085;28;20080;-73
2023/12/23 09:38:48;;;;;;;3.17;1.63;;;10.60;99.90;;;;;;5062600;28;20071;-69
2023/12/23 09:41:15;;;;;;;10.32;1.35;;;10.60;99.90;;;;;;5059658;28;20076;-68
2023/12/23 09:43:42;;;;;;;12.05;1.63;;;10.70;99.90;;;;;;5062944;28;20048;-69
2023/12/23 09:46:09;;;;;;;18.55;2.75;;;10.70;99.90;;;;;;5061386;28;20377;-69
2023/12/23 09:48:35;;;;;;;7.47;1.45;;;10.70;99.90;;;;;;5063137;28;20106;-69
2023/12/23 09:51:03;;;;;;;4.95;1.42;;;10.70;99.90;;;;;;5062363;28;20086;-69
2023/12/23 09:53:30;;;;;;;5.65;1.27;;;10.80;99.90;;;;;;5064671;28;20461;-69
2023/12/23 09:55:57;;;;;;;12.40;1.85;;;10.80;99.90;;;;;;5064222;28;20048;-71
2023/12/23 09:58:24;;;;;;;6.85;1.00;;;10.80;99.90;;;;;;5066139;28;20044;-69
2023/12/23 10:00:51;;;;;;;6.63;1.10;;;10.90;99.90;;;;;;5065353;28;20056;-69
2023/12/23 10:03:21;;;;;;;10.88;1.88;;;10.90;99.90;;;;;;5066991;28;20040;-69
2023/12/23 10:05:49;;;;;;;8.18;1.38;;;10.90;99.90;;;;;;5064388;28;20109;-70
2023/12/23 10:08:16;;;;;;;4.35;1.05;;;10.90;99.90;;;;;;5067500;28;20044;-68
2023/12/23 10:10:45;;;;;;;4.50;0.88;;;10.90;99.90;;;;;;5064929;28;20123;-70
2023/12/23 10:13:12;;;;;;;6.50;1.67;;;11.00;99.90;;;;;;5070415;28;20045;-71
2023/12/23 10:15:41;;;;;;;6.57;1.10;;;11.00;99.90;;;;;;5061475;28;20047;-71
2023/12/23 10:18:11;;;;;;;9.10;1.65;;;11.00;99.90;;;;;;4713419;28;10000322;-71
2023/12/23 10:20:38;;;;;;;5.60;1.52;;;11.00;99.90;;;;;;5060617;28;20615;-70
2023/12/23 10:23:05;;;;;;;11.00;1.65;;;11.00;99.90;;;;;;5056858;28;20663;-70
2023/12/23 10:25:32;;;;;;;5.65;0.90;;;11.00;99.90;;;;;;5059813;28;20125;-70
2023/12/23 10:28:05;;;;;;;5.38;1.20;;;11.10;99.90;;;;;;5067955;28;20110;-70
2023/12/23 10:30:36;;;;;;;11.45;1.50;;;11.10;99.90;;;;;;5052088;28;20431;-70
2023/12/23 10:33:06;;;;;;;5.25;1.35;;;11.00;99.90;;;;;;5065221;28;20056;-70
2023/12/23 10:35:46;;;;;;;6.30;1.17;;;11.10;99.90;;;;;;5063817;28;20052;-68
2023/12/23 10:38:22;;;;;;;4.47;0.93;;;11.10;99.90;;;;;;5062248;28;20539;-71
2023/12/23 10:41:04;;;;;;;6.57;0.90;;;11.10;99.90;;;;;;5059305;28;20052;-68
2023/12/23 10:43:30;;;;;;;6.72;1.70;;;11.20;99.90;;;;;;5062959;28;20052;-69
2023/12/23 10:45:57;;;;;;;5.38;1.20;;;11.20;99.90;;;;;;5062941;28;20052;-68
2023/12/23 10:48:24;;;;;;;6.07;0.98;;;11.30;99.90;;;;;;5062308;28;20563;-68
2023/12/23 10:50:51;;;;;;;8.40;1.33;;;11.30;99.90;;;;;;5051486;28;20446;-68
2023/12/23 10:53:18;;;;;;;5.32;1.48;;;11.40;99.90;;;;;;5054328;28;20052;-68
2023/12/23 10:55:46;;;;;;;6.57;3.13;;;11.40;99.90;;;;;;5057730;28;20136;-68
2023/12/23 10:58:13;;;;;;;6.30;1.17;;;11.40;99.90;;;;;;5061774;28;20448;-68
2023/12/23 11:00:41;;;;;;;5.47;1.00;;;11.50;99.90;;;;;;5062025;28;20523;-69
2023/12/23 11:03:08;;;;;;;4.03;1.67;;;11.50;99.90;;;;;;5060191;28;20132;-69
2023/12/23 11:05:36;;;;;;;5.13;1.13;;;11.60;99.90;;;;;;5054131;28;20053;-71
2023/12/23 11:08:06;;;;;;;3.50;1.00;;;11.60;99.90;;;;;;5062061;28;20048;-71
2023/12/23 11:10:42;;;;;;;4.38;0.82;;;11.60;99.90;;;;;;5065971;28;20561;-71
2023/12/23 11:13:09;;;;;;;3.60;0.90;;;11.60;99.90;;;;;;5062238;28;20078;-72
2023/12/23 11:15:39;;;;;;;6.97;0.77;;;11.60;99.90;;;;;;5061597;28;20136;-71
2023/12/23 11:18:08;;;;;;;5.65;0.88;;;11.60;99.90;;;;;;5076559;28;20424;-69
2023/12/23 11:20:35;;;;;;;1.85;1.08;;;11.60;99.90;;;;;;5060186;28;20560;-72
2023/12/23 11:23:33;;;;;;;2.92;0.95;;;11.70;99.90;;;;;;5056711;28;20135;-71
2023/12/23 11:26:01;;;;;;;2.85;0.77;;;11.70;99.90;;;;;;5055709;28;20435;-70
2023/12/23 11:28:33;;;;;;;3.72;0.82;;;11.80;99.90;;;;;;5061990;28;20725;-71
2023/12/23 11:31:00;;;;;;;3.92;1.00;;;11.80;99.90;;;;;;5058489;28;20132;-73
2023/12/23 11:33:30;;;;;;;5.60;1.30;;;11.90;99.90;;;;;;5059114;28;20124;-71
2023/12/23 11:35:58;;;;;;;1.55;0.55;;;11.80;99.90;;;;;;5065504;28;20044;-70
2023/12/23 11:38:28;;;;;;;4.50;1.17;;;11.80;99.90;;;;;;5069043;28;20056;-73
2023/12/23 11:40:55;;;;;;;14.93;1.35;;;11.80;99.90;;;;;;5062834;28;20079;-72
2023/12/23 11:43:22;;;;;;;3.10;0.98;;;11.80;99.90;;;;;;5058253;28;20052;-70
2023/12/23 11:45:49;;;;;;;5.68;1.92;;;11.80;99.90;;;;;;5057253;28;20041;-69
2023/12/23 11:48:20;;;;;;;2.88;0.95;;;11.80;99.90;;;;;;5069946;28;20511;-71
2023/12/23 11:50:47;;;;;;;6.30;1.05;;;11.80;99.90;;;;;;5058659;28;20055;-70
2023/12/23 11:53:14;;;;;;;3.83;0.95;;;11.80;99.90;;;;;;5057218;28;20049;-69
2023/12/23 11:55:41;;;;;;;3.22;0.90;;;11.80;99.90;;;;;;5059911;28;20059;-68
2023/12/23 11:58:08;;;;;;;0.93;0.77;;;11.80;99.90;;;;;;5059879;28;20056;-69
2023/12/23 12:00:37;;;;;;;4.65;1.10;;;11.80;99.90;;;;;;5061619;28;20118;-70
2023/12/23 12:03:07;;;;;;;2.60;1.02;;;11.90;99.90;;;;;;5062690;28;20049;-68
2023/12/23 12:05:34;;;;;;;1.83;0.77;;;12.00;99.90;;;;;;5059331;28;20561;-72
2023/12/23 12:08:01;;;;;;;4.88;0.80;;;11.90;99.90;;;;;;5065799;28;20578;-71
2023/12/23 12:10:28;;;;;;;4.32;0.85;;;11.90;99.90;;;;;;5066989;28;20053;-70
2023/12/23 12:12:55;;;;;;;6.45;0.90;;;12.00;99.90;;;;;;5065573;28;20059;-69
2023/12/23 12:15:22;;;;;;;4.57;1.30;;;12.00;99.90;;;;;;5061515;28;20072;-71
2023/12/23 12:17:50;;;;;;;2.75;0.75;;;12.00;99.90;;;;;;5054713;28;20110;-71
2023/12/23 12:20:17;;;;;;;3.58;0.80;;;12.00;99.90;;;;;;5058952;28;20078;-71
2023/12/23 12:22:45;;;;;;;3.10;0.73;;;12.00;99.90;;;;;;5057202;28;20511;-70
2023/12/23 12:25:14;;;;;;;4.60;0.90;;;12.00;99.90;;;;;;5054901;28;20359;-71
2023/12/23 12:27:41;;;;;;;2.83;0.93;;;12.00;99.90;;;;;;5061800;28;20075;-70
2023/12/23 12:30:09;;;;;;;2.40;0.55;;;12.00;99.90;;;;;;5062405;28;20525;-71
2023/12/23 12:32:42;;;;;;;2.03;0.63;;;12.00;99.90;;;;;;5061397;28;20096;-70
2023/12/23 12:35:12;;;;;;;6.50;0.98;;;12.00;99.90;;;;;;5060102;28;20438;-70
2023/12/23 12:37:40;;;;;;;3.47;0.90;;;12.00;99.90;;;;;;5056781;28;20044;-70
2023/12/23 12:40:11;;;;;;;2.95;0.73;;;12.10;99.90;;;;;;5059849;28;20048;-71
2023/12/23 12:42:38;;;;;;;4.13;0.85;;;12.00;99.90;;;;;;5060114;28;20049;-73
2023/12/23 12:45:05;;;;;;;4.18;0.80;;;12.00;99.90;;;;;;5063850;28;20052;-73
2023/12/23 12:47:32;;;;;;;4.03;1.08;;;12.00;99.90;;;;;;5059413;28;20460;-70
2023/12/23 12:50:02;;;;;;;8.57;2.03;;;12.00;99.90;;;;;;5054884;28;20048;-70
2023/12/23 12:52:34;;;;;;;6.32;0.70;;;12.00;99.90;;;;;;5058554;28;20049;-69